sensor_id;sensor_type;location;lat;lon;timestamp;P1;durP1;ratioP1;P2;durP2;ratioP2
47251;SDS011;32991;51.374;11.586;2023-09-08T00:02:24;9.45;;;8.10;;
47251;SDS011;32991;51.374;11.586;2023-09-08T00:04:51;13.25;;;8.45;;
47251;SDS011;32991;51.374;11.586;2023-09-08T00:07:18;11.38;;;8.80;;
47251;SDS011;32991;51.374;11.586;2023-09-08T00:09:45;11.80;;;8.32;;
47251;SDS011;32991;51.374;11.586;2023-09-08T00:12:12;10.45;;;8.27;;
47251;SDS011;32991;51.374;11.586;2023-09-08T00:14:39;10.10;;;7.70;;
47251;SDS011;32991;51.374;11.586;2023-09-08T00:17:05;9.82;;;8.20;;
47251;SDS011;32991;51.374;11.586;2023-09-08T00:19:32;11.73;;;8.43;;
47251;SDS011;32991;51.374;11.586;2023-09-08T00:21:58;11.65;;;8.50;;
47251;SDS011;32991;51.374;11.586;2023-09-08T00:24:25;10.38;;;8.63;;
47251;SDS011;32991;51.374;11.586;2023-09-08T00:26:52;9.50;;;8.37;;
47251;SDS011;32991;51.374;11.586;2023-09-08T00:29:18;9.57;;;8.60;;
47251;SDS011;32991;51.374;11.586;2023-09-08T00:31:45;11.80;;;8.82;;
47251;SDS011;32991;51.374;11.586;2023-09-08T00:34:12;12.17;;;8.60;;
47251;SDS011;32991;51.374;11.586;2023-09-08T00:36:38;10.50;;;8.65;;
47251;SDS011;32991;51.374;11.586;2023-09-08T00:39:05;10.07;;;8.52;;
47251;SDS011;32991;51.374;11.586;2023-09-08T00:41:31;12.18;;;9.82;;
47251;SDS011;32991;51.374;11.586;2023-09-08T00:44:00;9.63;;;8.50;;
47251;SDS011;32991;51.374;11.586;2023-09-08T00:46:26;11.40;;;9.07;;
47251;SDS011;32991;51.374;11.586;2023-09-08T00:48:54;10.63;;;9.52;;
47251;SDS011;32991;51.374;11.586;2023-09-08T00:51:21;10.50;;;8.40;;
47251;SDS011;32991;51.374;11.586;2023-09-08T00:53:48;11.15;;;8.77;;
47251;SDS011;32991;51.374;11.586;2023-09-08T00:56:16;9.45;;;8.40;;
47251;SDS011;32991;51.374;11.586;2023-09-08T00:58:42;12.18;;;8.77;;
47251;SDS011;32991;51.374;11.586;2023-09-08T01:01:09;9.57;;;8.40;;
47251;SDS011;32991;51.374;11.586;2023-09-08T01:03:36;13.20;;;9.00;;
47251;SDS011;32991;51.374;11.586;2023-09-08T01:06:03;9.32;;;8.43;;
47251;SDS011;32991;51.374;11.586;2023-09-08T01:08:30;10.27;;;9.10;;
47251;SDS011;32991;51.374;11.586;2023-09-08T01:10:57;10.25;;;9.05;;
47251;SDS011;32991;51.374;11.586;2023-09-08T01:13:24;12.40;;;9.75;;
47251;SDS011;32991;51.374;11.586;2023-09-08T01:15:50;14.98;;;10.15;;
47251;SDS011;32991;51.374;11.586;2023-09-08T01:18:17;14.85;;;9.45;;
47251;SDS011;32991;51.374;11.586;2023-09-08T01:20:57;13.20;;;9.60;;
47251;SDS011;32991;51.374;11.586;2023-09-08T01:26:40;13.43;;;9.57;;
47251;SDS011;32991;51.374;11.586;2023-09-08T01:29:09;11.88;;;9.55;;
47251;SDS011;32991;51.374;11.586;2023-09-08T01:31:37;12.40;;;9.65;;
47251;SDS011;32991;51.374;11.586;2023-09-08T01:34:04;12.70;;;9.43;;
47251;SDS011;32991;51.374;11.586;2023-09-08T01:36:34;11.85;;;10.00;;
47251;SDS011;32991;51.374;11.586;2023-09-08T01:39:01;10.52;;;9.43;;
47251;SDS011;32991;51.374;11.586;2023-09-08T01:41:29;11.07;;;9.23;;
47251;SDS011;32991;51.374;11.586;2023-09-08T01:43:57;14.27;;;9.20;;
47251;SDS011;32991;51.374;11.586;2023-09-08T01:46:24;11.25;;;9.50;;
47251;SDS011;32991;51.374;11.586;2023-09-08T01:48:51;10.57;;;9.27;;
47251;SDS011;32991;51.374;11.586;2023-09-08T01:51:18;11.60;;;9.93;;
47251;SDS011;32991;51.374;11.586;2023-09-08T01:53:45;12.15;;;10.02;;
47251;SDS011;32991;51.374;11.586;2023-09-08T01:56:11;12.75;;;10.45;;
47251;SDS011;32991;51.374;11.586;2023-09-08T01:58:39;13.52;;;9.88;;
47251;SDS011;32991;51.374;11.586;2023-09-08T02:01:05;13.45;;;10.32;;
47251;SDS011;32991;51.374;11.586;2023-09-08T02:03:33;12.77;;;10.00;;
47251;SDS011;32991;51.374;11.586;2023-09-08T02:06:00;11.50;;;9.88;;
47251;SDS011;32991;51.374;11.586;2023-09-08T02:08:27;13.35;;;10.10;;
47251;SDS011;32991;51.374;11.586;2023-09-08T02:10:53;11.87;;;9.63;;
47251;SDS011;32991;51.374;11.586;2023-09-08T02:13:21;11.97;;;10.40;;
47251;SDS011;32991;51.374;11.586;2023-09-08T02:15:48;15.20;;;10.70;;
47251;SDS011;32991;51.374;11.586;2023-09-08T02:18:15;11.48;;;10.40;;
47251;SDS011;32991;51.374;11.586;2023-09-08T02:20:41;11.63;;;10.48;;
47251;SDS011;32991;51.374;11.586;2023-09-08T02:23:08;14.38;;;10.80;;
47251;SDS011;32991;51.374;11.586;2023-09-08T02:25:35;12.75;;;9.85;;
47251;SDS011;32991;51.374;11.586;2023-09-08T02:28:02;11.30;;;9.95;;
47251;SDS011;32991;51.374;11.586;2023-09-08T02:30:28;13.10;;;10.50;;
47251;SDS011;32991;51.374;11.586;2023-09-08T02:32:56;11.88;;;10.30;;
47251;SDS011;32991;51.374;11.586;2023-09-08T02:35:23;12.18;;;10.40;;
47251;SDS011;32991;51.374;11.586;2023-09-08T02:37:51;12.17;;;10.87;;
47251;SDS011;32991;51.374;11.586;2023-09-08T02:40:19;14.00;;;10.77;;
47251;SDS011;32991;51.374;11.586;2023-09-08T02:42:48;12.20;;;10.23;;
47251;SDS011;32991;51.374;11.586;2023-09-08T02:45:14;13.75;;;10.75;;
47251;SDS011;32991;51.374;11.586;2023-09-08T02:47:41;12.25;;;10.35;;
47251;SDS011;32991;51.374;11.586;2023-09-08T02:50:08;12.68;;;9.95;;
47251;SDS011;32991;51.374;11.586;2023-09-08T02:52:35;13.45;;;10.70;;
47251;SDS011;32991;51.374;11.586;2023-09-08T02:55:02;11.47;;;10.17;;
47251;SDS011;32991;51.374;11.586;2023-09-08T02:57:28;13.98;;;10.60;;
47251;SDS011;32991;51.374;11.586;2023-09-08T02:59:55;12.40;;;10.55;;
47251;SDS011;32991;51.374;11.586;2023-09-08T03:02:26;12.68;;;11.32;;
47251;SDS011;32991;51.374;11.586;2023-09-08T03:04:53;13.15;;;10.30;;
47251;SDS011;32991;51.374;11.586;2023-09-08T03:07:19;13.52;;;11.05;;
47251;SDS011;32991;51.374;11.586;2023-09-08T03:09:47;13.95;;;10.55;;
47251;SDS011;32991;51.374;11.586;2023-09-08T03:12:13;13.90;;;11.27;;
47251;SDS011;32991;51.374;11.586;2023-09-08T03:14:40;14.15;;;12.10;;
47251;SDS011;32991;51.374;11.586;2023-09-08T03:17:07;14.82;;;11.88;;
47251;SDS011;32991;51.374;11.586;2023-09-08T03:19:33;12.45;;;11.35;;
47251;SDS011;32991;51.374;11.586;2023-09-08T03:22:00;14.02;;;12.02;;
47251;SDS011;32991;51.374;11.586;2023-09-08T03:24:27;15.32;;;12.40;;
47251;SDS011;32991;51.374;11.586;2023-09-08T03:26:53;14.48;;;12.43;;
47251;SDS011;32991;51.374;11.586;2023-09-08T03:29:20;14.63;;;11.95;;
47251;SDS011;32991;51.374;11.586;2023-09-08T03:31:47;13.95;;;12.35;;
47251;SDS011;32991;51.374;11.586;2023-09-08T03:34:15;14.13;;;12.48;;
47251;SDS011;32991;51.374;11.586;2023-09-08T03:36:43;14.10;;;12.35;;
47251;SDS011;32991;51.374;11.586;2023-09-08T03:39:09;14.43;;;12.37;;
47251;SDS011;32991;51.374;11.586;2023-09-08T03:41:37;14.05;;;11.70;;
47251;SDS011;32991;51.374;11.586;2023-09-08T03:44:03;14.60;;;11.93;;
47251;SDS011;32991;51.374;11.586;2023-09-08T03:46:31;16.17;;;14.55;;
47251;SDS011;32991;51.374;11.586;2023-09-08T03:48:58;13.50;;;11.82;;
47251;SDS011;32991;51.374;11.586;2023-09-08T03:51:26;14.70;;;13.05;;
47251;SDS011;32991;51.374;11.586;2023-09-08T03:53:54;14.00;;;12.47;;
47251;SDS011;32991;51.374;11.586;2023-09-08T03:56:21;14.30;;;12.90;;
47251;SDS011;32991;51.374;11.586;2023-09-08T03:58:47;18.87;;;16.93;;
47251;SDS011;32991;51.374;11.586;2023-09-08T04:01:15;17.35;;;13.30;;
47251;SDS011;32991;51.374;11.586;2023-09-08T04:03:41;16.67;;;13.77;;
47251;SDS011;32991;51.374;11.586;2023-09-08T04:06:08;16.13;;;14.40;;
47251;SDS011;32991;51.374;11.586;2023-09-08T04:08:35;16.80;;;15.10;;
47251;SDS011;32991;51.374;11.586;2023-09-08T04:11:02;15.97;;;14.37;;
47251;SDS011;32991;51.374;11.586;2023-09-08T04:13:28;16.60;;;14.95;;
47251;SDS011;32991;51.374;11.586;2023-09-08T04:15:55;15.82;;;14.23;;
47251;SDS011;32991;51.374;11.586;2023-09-08T04:18:22;15.52;;;13.90;;
47251;SDS011;32991;51.374;11.586;2023-09-08T04:20:49;15.07;;;13.55;;
47251;SDS011;32991;51.374;11.586;2023-09-08T04:23:15;15.93;;;14.30;;
47251;SDS011;32991;51.374;11.586;2023-09-08T04:25:42;15.77;;;14.23;;
47251;SDS011;32991;51.374;11.586;2023-09-08T04:28:08;16.40;;;13.75;;
47251;SDS011;32991;51.374;11.586;2023-09-08T04:30:35;15.20;;;13.63;;
47251;SDS011;32991;51.374;11.586;2023-09-08T04:33:02;15.88;;;14.18;;
47251;SDS011;32991;51.374;11.586;2023-09-08T04:35:29;15.95;;;14.35;;
47251;SDS011;32991;51.374;11.586;2023-09-08T04:37:55;18.15;;;16.17;;
47251;SDS011;32991;51.374;11.586;2023-09-08T04:40:22;17.17;;;15.32;;
47251;SDS011;32991;51.374;11.586;2023-09-08T04:42:49;17.43;;;15.63;;
47251;SDS011;32991;51.374;11.586;2023-09-08T04:45:15;18.05;;;16.30;;
47251;SDS011;32991;51.374;11.586;2023-09-08T04:47:42;16.40;;;14.63;;
47251;SDS011;32991;51.374;11.586;2023-09-08T04:50:09;17.30;;;15.57;;
47251;SDS011;32991;51.374;11.586;2023-09-08T04:52:36;16.77;;;15.07;;
47251;SDS011;32991;51.374;11.586;2023-09-08T04:55:03;17.63;;;15.87;;
47251;SDS011;32991;51.374;11.586;2023-09-08T04:57:30;17.25;;;15.50;;
47251;SDS011;32991;51.374;11.586;2023-09-08T04:59:57;17.38;;;15.65;;
47251;SDS011;32991;51.374;11.586;2023-09-08T05:02:24;17.48;;;15.77;;
47251;SDS011;32991;51.374;11.586;2023-09-08T05:04:51;16.13;;;14.43;;
47251;SDS011;32991;51.374;11.586;2023-09-08T05:07:18;16.58;;;14.50;;
47251;SDS011;32991;51.374;11.586;2023-09-08T05:09:45;14.07;;;12.60;;
47251;SDS011;32991;51.374;11.586;2023-09-08T05:12:13;15.18;;;13.15;;
47251;SDS011;32991;51.374;11.586;2023-09-08T05:14:39;14.35;;;12.93;;
47251;SDS011;32991;51.374;11.586;2023-09-08T05:17:07;14.67;;;13.20;;
47251;SDS011;32991;51.374;11.586;2023-09-08T05:19:34;17.63;;;13.27;;
47251;SDS011;32991;51.374;11.586;2023-09-08T05:22:01;15.67;;;13.23;;
47251;SDS011;32991;51.374;11.586;2023-09-08T05:24:29;17.40;;;13.45;;
47251;SDS011;32991;51.374;11.586;2023-09-08T05:26:56;18.05;;;13.60;;
47251;SDS011;32991;51.374;11.586;2023-09-08T05:29:23;18.20;;;13.25;;
47251;SDS011;32991;51.374;11.586;2023-09-08T05:31:50;18.85;;;12.32;;
47251;SDS011;32991;51.374;11.586;2023-09-08T05:34:18;18.88;;;12.32;;
47251;SDS011;32991;51.374;11.586;2023-09-08T05:36:45;18.15;;;12.75;;
47251;SDS011;32991;51.374;11.586;2023-09-08T05:39:13;20.55;;;12.70;;
47251;SDS011;32991;51.374;11.586;2023-09-08T05:41:40;20.27;;;11.80;;
47251;SDS011;32991;51.374;11.586;2023-09-08T05:44:07;23.80;;;12.23;;
47251;SDS011;32991;51.374;11.586;2023-09-08T05:46:34;18.20;;;11.90;;
47251;SDS011;32991;51.374;11.586;2023-09-08T05:49:01;15.50;;;11.40;;
47251;SDS011;32991;51.374;11.586;2023-09-08T05:51:29;15.95;;;11.80;;
47251;SDS011;32991;51.374;11.586;2023-09-08T05:53:57;16.20;;;11.52;;
47251;SDS011;32991;51.374;11.586;2023-09-08T05:56:24;18.35;;;11.52;;
47251;SDS011;32991;51.374;11.586;2023-09-08T05:58:52;13.37;;;11.07;;
47251;SDS011;32991;51.374;11.586;2023-09-08T06:01:19;16.73;;;10.77;;
47251;SDS011;32991;51.374;11.586;2023-09-08T06:03:48;15.40;;;10.70;;
47251;SDS011;32991;51.374;11.586;2023-09-08T06:06:16;13.15;;;9.80;;
47251;SDS011;32991;51.374;11.586;2023-09-08T06:08:42;13.38;;;9.48;;
47251;SDS011;32991;51.374;11.586;2023-09-08T06:11:09;15.07;;;9.40;;
47251;SDS011;32991;51.374;11.586;2023-09-08T06:13:36;15.70;;;9.85;;
47251;SDS011;32991;51.374;11.586;2023-09-08T06:16:02;14.50;;;9.55;;
47251;SDS011;32991;51.374;11.586;2023-09-08T06:18:29;13.55;;;10.13;;
47251;SDS011;32991;51.374;11.586;2023-09-08T06:21:08;12.10;;;9.35;;
47251;SDS011;32991;51.374;11.586;2023-09-08T06:23:36;12.25;;;8.85;;
47251;SDS011;32991;51.374;11.586;2023-09-08T06:26:04;12.45;;;8.38;;
47251;SDS011;32991;51.374;11.586;2023-09-08T06:28:32;10.68;;;8.90;;
47251;SDS011;32991;51.374;11.586;2023-09-08T06:30:59;11.30;;;8.98;;
47251;SDS011;32991;51.374;11.586;2023-09-08T06:33:26;11.45;;;8.18;;
47251;SDS011;32991;51.374;11.586;2023-09-08T06:35:53;12.07;;;8.63;;
47251;SDS011;32991;51.374;11.586;2023-09-08T06:38:20;10.90;;;8.45;;
47251;SDS011;32991;51.374;11.586;2023-09-08T06:40:47;9.65;;;8.40;;
47251;SDS011;32991;51.374;11.586;2023-09-08T06:43:14;9.07;;;8.00;;
47251;SDS011;32991;51.374;11.586;2023-09-08T06:45:50;11.23;;;8.23;;
47251;SDS011;32991;51.374;11.586;2023-09-08T06:48:19;10.70;;;8.30;;
47251;SDS011;32991;51.374;11.586;2023-09-08T06:50:46;12.20;;;8.05;;
47251;SDS011;32991;51.374;11.586;2023-09-08T06:53:13;8.57;;;7.75;;
47251;SDS011;32991;51.374;11.586;2023-09-08T06:55:41;10.27;;;8.15;;
47251;SDS011;32991;51.374;11.586;2023-09-08T06:58:11;8.00;;;7.20;;
47251;SDS011;32991;51.374;11.586;2023-09-08T07:00:41;8.85;;;7.65;;
47251;SDS011;32991;51.374;11.586;2023-09-08T07:03:08;10.18;;;7.97;;
47251;SDS011;32991;51.374;11.586;2023-09-08T07:05:35;10.90;;;7.33;;
47251;SDS011;32991;51.374;11.586;2023-09-08T07:08:02;11.07;;;8.07;;
47251;SDS011;32991;51.374;11.586;2023-09-08T07:10:29;11.00;;;8.43;;
47251;SDS011;32991;51.374;11.586;2023-09-08T07:12:55;14.27;;;8.93;;
47251;SDS011;32991;51.374;11.586;2023-09-08T07:15:22;12.63;;;8.93;;
47251;SDS011;32991;51.374;11.586;2023-09-08T07:17:49;13.93;;;8.87;;
47251;SDS011;32991;51.374;11.586;2023-09-08T07:20:16;12.10;;;8.90;;
47251;SDS011;32991;51.374;11.586;2023-09-08T07:22:44;15.23;;;8.75;;
47251;SDS011;32991;51.374;11.586;2023-09-08T07:25:11;13.05;;;9.27;;
47251;SDS011;32991;51.374;11.586;2023-09-08T07:27:38;15.85;;;8.95;;
47251;SDS011;32991;51.374;11.586;2023-09-08T07:30:06;12.13;;;8.10;;
47251;SDS011;32991;51.374;11.586;2023-09-08T07:32:33;15.00;;;8.00;;
47251;SDS011;32991;51.374;11.586;2023-09-08T07:35:00;9.93;;;7.43;;
47251;SDS011;32991;51.374;11.586;2023-09-08T07:37:27;12.95;;;8.38;;
47251;SDS011;32991;51.374;11.586;2023-09-08T07:39:55;11.90;;;8.13;;
47251;SDS011;32991;51.374;11.586;2023-09-08T07:42:21;11.45;;;8.43;;
47251;SDS011;32991;51.374;11.586;2023-09-08T07:44:49;11.80;;;8.23;;
47251;SDS011;32991;51.374;11.586;2023-09-08T07:47:16;10.70;;;7.70;;
47251;SDS011;32991;51.374;11.586;2023-09-08T07:49:45;10.60;;;8.70;;
47251;SDS011;32991;51.374;11.586;2023-09-08T07:52:12;12.50;;;8.32;;
47251;SDS011;32991;51.374;11.586;2023-09-08T07:54:39;12.40;;;8.57;;
47251;SDS011;32991;51.374;11.586;2023-09-08T07:57:06;12.23;;;8.70;;
47251;SDS011;32991;51.374;11.586;2023-09-08T07:59:32;9.00;;;8.10;;
47251;SDS011;32991;51.374;11.586;2023-09-08T08:02:03;10.70;;;7.53;;
47251;SDS011;32991;51.374;11.586;2023-09-08T08:04:29;8.40;;;6.93;;
47251;SDS011;32991;51.374;11.586;2023-09-08T08:06:56;9.30;;;6.90;;
47251;SDS011;32991;51.374;11.586;2023-09-08T08:09:23;7.93;;;6.75;;
47251;SDS011;32991;51.374;11.586;2023-09-08T08:11:49;8.98;;;6.35;;
47251;SDS011;32991;51.374;11.586;2023-09-08T08:14:16;12.55;;;6.65;;
47251;SDS011;32991;51.374;11.586;2023-09-08T08:16:43;6.72;;;6.13;;
47251;SDS011;32991;51.374;11.586;2023-09-08T08:19:09;7.32;;;5.90;;
47251;SDS011;32991;51.374;11.586;2023-09-08T08:21:36;7.47;;;6.40;;
47251;SDS011;32991;51.374;11.586;2023-09-08T08:24:04;6.68;;;5.57;;
47251;SDS011;32991;51.374;11.586;2023-09-08T08:26:31;10.60;;;5.90;;
47251;SDS011;32991;51.374;11.586;2023-09-08T08:31:26;7.43;;;5.80;;
47251;SDS011;32991;51.374;11.586;2023-09-08T08:33:53;6.50;;;5.77;;
47251;SDS011;32991;51.374;11.586;2023-09-08T08:36:19;7.78;;;5.90;;
47251;SDS011;32991;51.374;11.586;2023-09-08T08:38:46;6.47;;;5.82;;
47251;SDS011;32991;51.374;11.586;2023-09-08T08:41:13;8.30;;;5.60;;
47251;SDS011;32991;51.374;11.586;2023-09-08T08:43:39;6.63;;;5.75;;
47251;SDS011;32991;51.374;11.586;2023-09-08T08:46:06;6.88;;;6.13;;
47251;SDS011;32991;51.374;11.586;2023-09-08T08:48:33;7.18;;;5.88;;
47251;SDS011;32991;51.374;11.586;2023-09-08T08:51:01;10.65;;;6.10;;
47251;SDS011;32991;51.374;11.586;2023-09-08T08:53:28;6.63;;;5.70;;
47251;SDS011;32991;51.374;11.586;2023-09-08T08:55:55;11.30;;;6.00;;
47251;SDS011;32991;51.374;11.586;2023-09-08T08:58:23;11.63;;;5.43;;
47251;SDS011;32991;51.374;11.586;2023-09-08T09:00:53;7.07;;;5.40;;
47251;SDS011;32991;51.374;11.586;2023-09-08T09:03:23;7.20;;;5.57;;
47251;SDS011;32991;51.374;11.586;2023-09-08T09:05:51;6.28;;;5.70;;
47251;SDS011;32991;51.374;11.586;2023-09-08T09:08:19;10.20;;;5.78;;
47251;SDS011;32991;51.374;11.586;2023-09-08T09:10:45;9.30;;;4.82;;
47251;SDS011;32991;51.374;11.586;2023-09-08T09:13:12;6.55;;;5.03;;
47251;SDS011;32991;51.374;11.586;2023-09-08T09:15:38;8.32;;;5.45;;
47251;SDS011;32991;51.374;11.586;2023-09-08T09:18:07;6.03;;;5.43;;
47251;SDS011;32991;51.374;11.586;2023-09-08T09:20:34;7.65;;;5.18;;
47251;SDS011;32991;51.374;11.586;2023-09-08T09:23:01;7.37;;;4.83;;
47251;SDS011;32991;51.374;11.586;2023-09-08T09:25:28;6.18;;;5.50;;
47251;SDS011;32991;51.374;11.586;2023-09-08T09:27:56;7.35;;;6.20;;
47251;SDS011;32991;51.374;11.586;2023-09-08T09:30:25;7.80;;;5.93;;
47251;SDS011;32991;51.374;11.586;2023-09-08T09:33:02;9.25;;;5.25;;
47251;SDS011;32991;51.374;11.586;2023-09-08T09:35:46;6.60;;;4.78;;
47251;SDS011;32991;51.374;11.586;2023-09-08T09:38:13;7.93;;;4.90;;
47251;SDS011;32991;51.374;11.586;2023-09-08T09:40:40;7.90;;;4.93;;
47251;SDS011;32991;51.374;11.586;2023-09-08T09:43:07;5.97;;;5.30;;
47251;SDS011;32991;51.374;11.586;2023-09-08T09:45:35;5.18;;;4.18;;
47251;SDS011;32991;51.374;11.586;2023-09-08T09:48:05;6.43;;;3.90;;
47251;SDS011;32991;51.374;11.586;2023-09-08T09:50:34;6.10;;;4.20;;
47251;SDS011;32991;51.374;11.586;2023-09-08T12:06:51;5.32;;;3.40;;
47251;SDS011;32991;51.374;11.586;2023-09-08T12:09:21;4.07;;;3.40;;
47251;SDS011;32991;51.374;11.586;2023-09-08T12:26:39;5.18;;;3.70;;
47251;SDS011;32991;51.374;11.586;2023-09-08T12:29:12;5.93;;;3.72;;
47251;SDS011;32991;51.374;11.586;2023-09-08T12:31:39;8.13;;;3.83;;
47251;SDS011;32991;51.374;11.586;2023-09-08T12:48:51;8.05;;;3.40;;
47251;SDS011;32991;51.374;11.586;2023-09-08T12:51:17;5.63;;;3.47;;
47251;SDS011;32991;51.374;11.586;2023-09-08T12:53:44;5.15;;;3.35;;
47251;SDS011;32991;51.374;11.586;2023-09-08T12:56:10;5.50;;;3.20;;
47251;SDS011;32991;51.374;11.586;2023-09-08T13:01:04;4.65;;;3.42;;
47251;SDS011;32991;51.374;11.586;2023-09-08T13:03:33;6.57;;;3.28;;
47251;SDS011;32991;51.374;11.586;2023-09-08T13:05:59;5.70;;;3.30;;
47251;SDS011;32991;51.374;11.586;2023-09-08T13:08:26;6.20;;;3.40;;
47251;SDS011;32991;51.374;11.586;2023-09-08T13:10:52;5.40;;;3.28;;
47251;SDS011;32991;51.374;11.586;2023-09-08T13:20:38;8.43;;;3.22;;
47251;SDS011;32991;51.374;11.586;2023-09-08T13:23:05;9.00;;;3.30;;
47251;SDS011;32991;51.374;11.586;2023-09-08T13:25:32;5.95;;;3.70;;
47251;SDS011;32991;51.374;11.586;2023-09-08T13:27:58;5.85;;;3.30;;
47251;SDS011;32991;51.374;11.586;2023-09-08T13:30:25;6.20;;;3.65;;
47251;SDS011;32991;51.374;11.586;2023-09-08T13:32:53;10.27;;;3.88;;
47251;SDS011;32991;51.374;11.586;2023-09-08T13:35:22;6.78;;;3.60;;
47251;SDS011;32991;51.374;11.586;2023-09-08T13:37:48;7.00;;;3.60;;
47251;SDS011;32991;51.374;11.586;2023-09-08T13:40:15;6.20;;;3.33;;
47251;SDS011;32991;51.374;11.586;2023-09-08T13:42:42;5.30;;;3.28;;
47251;SDS011;32991;51.374;11.586;2023-09-08T13:45:08;6.90;;;4.10;;
47251;SDS011;32991;51.374;11.586;2023-09-08T13:47:35;8.80;;;3.22;;
47251;SDS011;32991;51.374;11.586;2023-09-08T13:50:04;6.10;;;3.63;;
47251;SDS011;32991;51.374;11.586;2023-09-08T13:52:32;5.28;;;3.22;;
47251;SDS011;32991;51.374;11.586;2023-09-08T13:55:03;5.70;;;3.28;;
47251;SDS011;32991;51.374;11.586;2023-09-08T13:57:50;6.18;;;3.35;;
47251;SDS011;32991;51.374;11.586;2023-09-08T14:00:21;8.90;;;3.63;;
47251;SDS011;32991;51.374;11.586;2023-09-08T14:02:50;5.40;;;3.20;;
47251;SDS011;32991;51.374;11.586;2023-09-08T14:05:22;3.72;;;3.03;;
47251;SDS011;32991;51.374;11.586;2023-09-08T14:07:54;6.63;;;3.85;;
47251;SDS011;32991;51.374;11.586;2023-09-08T14:10:33;6.88;;;3.47;;
47251;SDS011;32991;51.374;11.586;2023-09-08T14:13:02;3.45;;;3.10;;
47251;SDS011;32991;51.374;11.586;2023-09-08T14:15:29;4.70;;;3.13;;
47251;SDS011;32991;51.374;11.586;2023-09-08T14:17:56;4.38;;;2.83;;
47251;SDS011;32991;51.374;11.586;2023-09-08T14:20:23;6.70;;;3.33;;
47251;SDS011;32991;51.374;11.586;2023-09-08T14:22:49;6.45;;;3.20;;
47251;SDS011;32991;51.374;11.586;2023-09-08T14:25:16;3.85;;;3.10;;
47251;SDS011;32991;51.374;11.586;2023-09-08T14:27:43;4.70;;;3.33;;
47251;SDS011;32991;51.374;11.586;2023-09-08T14:30:09;7.85;;;2.95;;
47251;SDS011;32991;51.374;11.586;2023-09-08T14:32:36;6.13;;;3.15;;
47251;SDS011;32991;51.374;11.586;2023-09-08T14:35:03;4.38;;;3.20;;
47251;SDS011;32991;51.374;11.586;2023-09-08T14:37:29;3.20;;;2.53;;
47251;SDS011;32991;51.374;11.586;2023-09-08T14:39:56;5.65;;;3.00;;
47251;SDS011;32991;51.374;11.586;2023-09-08T14:42:23;4.93;;;2.92;;
47251;SDS011;32991;51.374;11.586;2023-09-08T14:44:49;4.22;;;3.28;;
47251;SDS011;32991;51.374;11.586;2023-09-08T14:47:18;4.93;;;2.90;;
47251;SDS011;32991;51.374;11.586;2023-09-08T14:49:44;5.45;;;3.13;;
47251;SDS011;32991;51.374;11.586;2023-09-08T14:52:11;4.13;;;2.83;;
47251;SDS011;32991;51.374;11.586;2023-09-08T14:54:37;4.47;;;2.83;;
47251;SDS011;32991;51.374;11.586;2023-09-08T14:57:04;3.25;;;2.88;;
47251;SDS011;32991;51.374;11.586;2023-09-08T14:59:31;6.15;;;2.92;;
47251;SDS011;32991;51.374;11.586;2023-09-08T15:01:57;4.93;;;3.10;;
47251;SDS011;32991;51.374;11.586;2023-09-08T15:04:24;4.57;;;3.30;;
47251;SDS011;32991;51.374;11.586;2023-09-08T15:06:50;6.15;;;2.92;;
47251;SDS011;32991;51.374;11.586;2023-09-08T15:09:17;7.75;;;3.25;;
47251;SDS011;32991;51.374;11.586;2023-09-08T15:11:44;7.13;;;3.40;;
47251;SDS011;32991;51.374;11.586;2023-09-08T15:14:10;6.75;;;3.40;;
47251;SDS011;32991;51.374;11.586;2023-09-08T15:16:37;5.15;;;3.20;;
47251;SDS011;32991;51.374;11.586;2023-09-08T15:19:04;6.45;;;3.75;;
47251;SDS011;32991;51.374;11.586;2023-09-08T15:21:30;5.30;;;3.28;;
47251;SDS011;32991;51.374;11.586;2023-09-08T15:23:59;4.32;;;3.08;;
47251;SDS011;32991;51.374;11.586;2023-09-08T15:26:25;7.15;;;3.45;;
47251;SDS011;32991;51.374;11.586;2023-09-08T15:28:52;4.07;;;3.05;;
47251;SDS011;32991;51.374;11.586;2023-09-08T15:31:19;6.18;;;2.97;;
47251;SDS011;32991;51.374;11.586;2023-09-08T15:33:45;8.70;;;3.42;;
47251;SDS011;32991;51.374;11.586;2023-09-08T15:36:12;4.50;;;3.17;;
47251;SDS011;32991;51.374;11.586;2023-09-08T15:38:39;3.67;;;2.97;;
47251;SDS011;32991;51.374;11.586;2023-09-08T15:43:37;8.20;;;3.22;;
47251;SDS011;32991;51.374;11.586;2023-09-08T15:46:05;5.88;;;3.45;;
47251;SDS011;32991;51.374;11.586;2023-09-08T15:48:38;7.25;;;4.05;;
47251;SDS011;32991;51.374;11.586;2023-09-08T15:51:06;8.23;;;4.13;;
47251;SDS011;32991;51.374;11.586;2023-09-08T15:53:33;6.05;;;3.50;;
47251;SDS011;32991;51.374;11.586;2023-09-08T15:56:01;7.60;;;3.50;;
47251;SDS011;32991;51.374;11.586;2023-09-08T15:58:27;7.35;;;3.63;;
47251;SDS011;32991;51.374;11.586;2023-09-08T16:00:54;11.80;;;6.43;;
47251;SDS011;32991;51.374;11.586;2023-09-08T16:03:20;7.28;;;5.80;;
47251;SDS011;32991;51.374;11.586;2023-09-08T16:05:47;6.95;;;3.45;;
47251;SDS011;32991;51.374;11.586;2023-09-08T16:08:14;8.15;;;3.63;;
47251;SDS011;32991;51.374;11.586;2023-09-08T16:10:40;7.53;;;3.60;;
47251;SDS011;32991;51.374;11.586;2023-09-08T16:13:07;5.82;;;3.40;;
47251;SDS011;32991;51.374;11.586;2023-09-08T16:15:34;6.95;;;3.88;;
47251;SDS011;32991;51.374;11.586;2023-09-08T16:18:00;5.75;;;3.95;;
47251;SDS011;32991;51.374;11.586;2023-09-08T16:20:27;8.05;;;3.95;;
47251;SDS011;32991;51.374;11.586;2023-09-08T16:22:54;6.80;;;4.10;;
47251;SDS011;32991;51.374;11.586;2023-09-08T16:25:20;6.65;;;3.38;;
47251;SDS011;32991;51.374;11.586;2023-09-08T16:27:47;5.22;;;3.53;;
47251;SDS011;32991;51.374;11.586;2023-09-08T16:30:14;5.80;;;3.70;;
47251;SDS011;32991;51.374;11.586;2023-09-08T16:32:40;15.43;;;3.73;;
47251;SDS011;32991;51.374;11.586;2023-09-08T16:35:07;5.95;;;3.75;;
47251;SDS011;32991;51.374;11.586;2023-09-08T16:37:34;7.82;;;3.67;;
47251;SDS011;32991;51.374;11.586;2023-09-08T16:40:01;7.25;;;4.20;;
47251;SDS011;32991;51.374;11.586;2023-09-08T16:42:27;6.63;;;4.17;;
47251;SDS011;32991;51.374;11.586;2023-09-08T16:44:54;6.43;;;3.83;;
47251;SDS011;32991;51.374;11.586;2023-09-08T16:47:20;7.32;;;3.70;;
47251;SDS011;32991;51.374;11.586;2023-09-08T16:49:49;6.85;;;3.80;;
47251;SDS011;32991;51.374;11.586;2023-09-08T16:52:16;5.97;;;3.75;;
47251;SDS011;32991;51.374;11.586;2023-09-08T16:54:43;6.15;;;3.67;;
47251;SDS011;32991;51.374;11.586;2023-09-08T16:57:11;5.63;;;3.90;;
47251;SDS011;32991;51.374;11.586;2023-09-08T16:59:39;9.40;;;4.03;;
47251;SDS011;32991;51.374;11.586;2023-09-08T17:02:06;6.47;;;3.90;;
47251;SDS011;32991;51.374;11.586;2023-09-08T17:04:32;7.30;;;3.77;;
47251;SDS011;32991;51.374;11.586;2023-09-08T17:06:59;7.93;;;3.97;;
47251;SDS011;32991;51.374;11.586;2023-09-08T17:09:26;6.57;;;4.18;;
47251;SDS011;32991;51.374;11.586;2023-09-08T17:11:54;7.80;;;3.80;;
47251;SDS011;32991;51.374;11.586;2023-09-08T17:14:21;8.30;;;4.32;;
47251;SDS011;32991;51.374;11.586;2023-09-08T17:16:48;6.50;;;3.83;;
47251;SDS011;32991;51.374;11.586;2023-09-08T17:19:15;6.70;;;4.00;;
47251;SDS011;32991;51.374;11.586;2023-09-08T17:21:42;7.57;;;4.10;;
47251;SDS011;32991;51.374;11.586;2023-09-08T17:24:08;6.65;;;4.10;;
47251;SDS011;32991;51.374;11.586;2023-09-08T17:26:35;4.88;;;4.22;;